CheckWX is a tool to help pilots better visualize weather data.  It is not intended as a substitute for an official pre-flight weather briefing.

17:00:24 UTC

DABS TAF
Cheikh Larbi Tébessi Airport
Tébessi, Algeria
TAF DABS 191100Z 1912/2012 24014KT 9999 FEW033 SCT100 PROB40 TEMPO 1912/1921 26015G25KT FEW026TCU PROB30 TEMPO 1914/1920 4000 -TSRA FEW026CB BECMG 1920/1922 30008KT PROB30 TEMPO 2012/2018 FEW026TCU

Sep-19@
12:00 UTC

Sep-19 @ 12:00 UTC

Sep-19@
20:00 UTC

Sep-19 @ 20:00 UTC

TAF DABS 191100Z 1912/2012 24014KT 9999 FEW033 SCT100
Wind
  • 240° at 14 KTS
Cloud Levels
  • Few at 3,300' AGL
  • Scattered at 10,000' AGL

Sep-19@
12:00 UTC

Sep-19 @ 12:00 UTC

Sep-19@
21:00 UTC

Sep-19 @ 21:00 UTC

PROB40 TEMPO 1912/1921 26015G25KT FEW026TCU

Temporary - 40% Likelihood

Temporary - 40% Likelihood during this time.

Wind
  • 260° at 15 KTS
  • {Gusting to 25 KTS
Cloud Levels
  • Few at 2,600' AGL

Sep-19@
14:00 UTC

Sep-19 @ 14:00 UTC

Sep-19@
20:00 UTC

Sep-19 @ 20:00 UTC

PROB30 TEMPO 1914/1920 4000 -TSRA FEW026CB

Temporary - 30% Likelihood

Temporary - 30% Likelihood during this time.

Conditions
Light Thunderstorm, Light Rain
Cloud Levels
  • Few at 2,600' AGL

Sep-19@
20:00 UTC

Sep-19 @ 20:00 UTC

Sep-20@
12:00 UTC

Sep-20 @ 12:00 UTC

BECMG 1920/1922 30008KT

Becoming

Becoming Conditions expected by Thu, Sep 19, 2019 @ 22:00 UTC

Wind
  • 300° at 8 KTS
Cloud Levels
  • Few at 3,300' AGL
  • Scattered at 10,000' AGL

Sep-20@
12:00 UTC

Sep-20 @ 12:00 UTC

Sep-20@
18:00 UTC

Sep-20 @ 18:00 UTC

PROB30 TEMPO 2012/2018 FEW026TCU

Temporary - 30% Likelihood

Temporary - 30% Likelihood during this time.

Cloud Levels
  • Few at 2,600' AGL